• Join FlightAware (Why Join?)
  • Login
  • US Flag 
03:09AM EDT


 

Airport Tracker/Info


-or-


 

Live Flight TrackerFlight Track Log ✈ UAL1519 ✈ 18-May-2013 ✈ KEWR - TIST / STT

Flight Track Log - Related Links

Times and Time Zones

All times are in EDT time to prevent confusion due to time zone crossing. See the UAL1519 flight status page for this flight to view local times or setup timezone preferences in your user account.

Time Position Orientation Groundspeed Altitude Reporting Facility
EDT Latitude Longitude Course Direction KTS MPH feet Rate Location/Type
09:39AM 40.6333 -74.2000 110° East 199 229 2,200  Level New York TRACON
09:40AM 40.5833 -74.2500 217° Southwest 253 291 5,000 1,860 Climbing New York TRACON
09:41AM 40.5167 -74.2667 191° South 283 326 6,000 360 Climbing New York TRACON
09:43AM 40.0859 -74.1500 180° South  Level FlightAware Approximate
09:43AM 40.3950 -74.2019 158° South 277 319 6,000  Level New York Center
09:44AM 40.0439 -74.0045 123° Southeast  Level FlightAware Approximate
09:44AM 40.3211 -74.1683 161° South 277 319 8,200  Level New York Center
09:45AM 39.9971 -73.8503 110° East  Level FlightAware Approximate
09:45AM 40.2378 -74.1642 178° South 298 343 10,900  Level New York Center
09:46AM 40.1461 -74.1653 181° South 322 371 13,500 2,520 Climbing New York Center
09:47AM 40.0694 -74.0800 140° Southeast 352 405 15,900 2,040 Climbing New York Center
09:48AM 40.0350 -73.9592 110° East 364 419 17,700 1,920 Climbing New York Center
09:49AM 40.0269 -73.7933 94° East 406 467 19,800 2,160 Climbing New York Center
09:50AM 40.0247 -73.6333 91° East 418 481 22,000 1,560 Climbing New York Center
09:51AM 40.0244 -73.4708 90° East 428 493 22,900 420 Climbing New York Center
09:52AM 40.0217 -73.3108 91° East 442 509 22,900  Level New York Center
09:53AM 40.0231 -73.1481 89° East 442 509 23,000 540 Climbing New York Center
09:54AM 40.0222 -72.9828 90° East 442 509 24,000 1,440 Climbing New York Center
09:55AM 40.0003 -72.8194 100° East 448 516 25,900 1,740 Climbing New York Center
09:56AM 39.9214 -72.6792 126° Southeast 448 516 27,500 1,440 Climbing New York Center
09:57AM 39.8444 -72.5311 124° Southeast 471 542 28,800 1,320 Climbing New York Center
09:58AM 39.7633 -72.3778 125° Southeast 496 571 30,300 1,680 Climbing New York Center
09:59AM 39.6819 -72.2247 125° Southeast 501 577 32,200 1,740 Climbing New York Center
10:00AM 39.6025 -72.0750 125° Southeast 506 582 33,800 1,380 Climbing New York Center
10:01AM 39.5228 -71.9281 125° Southeast 501 577 35,000 600 Climbing New York Center
10:02AM 39.4450 -71.7789 124° Southeast 501 577 35,000 -60 Level New York Center
10:03AM 39.3942 -71.6142 112° Southeast 491 565 34,900  Descending New York Center
10:04AM 39.2867 -71.5031 141° Southeast 482 555 35,000  Climbing New York Center
10:05AM 39.1642 -71.4214 153° Southeast 480 552 34,900  Descending New York Center
10:06AM 39.0436 -71.3344 151° Southeast 490 564 35,000  Climbing New York Center
10:07AM 38.9231 -71.2456 150° Southeast 490 564 34,900 -60 Descending New York Center
10:08AM 38.8047 -71.1619 151° Southeast 490 564 34,900  Level New York Center
10:09AM 38.6839 -71.0814 153° Southeast 490 564 34,900  Level New York Center
10:10AM 38.5675 -70.9933 149° Southeast 490 564 34,900  Level New York Center
10:11AM 38.4467 -70.9133 153° Southeast 495 570 35,000  Climbing New York Center
10:12AM 38.3342 -70.8231 148° Southeast 490 564 35,000  Level New York Center
10:13AM 38.2092 -70.7489 155° Southeast 485 558 35,000 -60 Level New York Center
10:14AM 38.0986 -70.6589 147° Southeast 480 552 34,900  Descending New York Center
10:15AM 37.9817 -70.5775 151° Southeast 480 552 35,000  Climbing New York Center
10:16AM 37.8750 -70.5092 153° Southeast 475 547 34,900  Descending New York Center
10:17AM 37.7708 -70.4517 156° South 475 547 35,000  Climbing New York Center
10:18AM 37.6244 -70.3553 152° Southeast 455 524 35,000  Level New York Center
10:20AM 37.4447 -70.2246 155° Southeast  Level FlightAware Approximate
10:27AM 36.6564 -69.7513 154° Southeast  Level FlightAware Approximate
10:28AM 36.5438 -69.6839 154° Southeast  Level FlightAware Approximate
10:29AM 36.4312 -69.6168 154° Southeast  Level FlightAware Approximate
10:30AM 36.3186 -69.5498 154° Southeast  Level FlightAware Approximate
10:31AM 36.2059 -69.4830 154° Southeast  Level FlightAware Approximate
10:31AM 36.1667 -69.4500 168° South 472 543 35,000  Level New York Oceanic (ODAPS)
10:32AM 36.0885 -69.4335 168° South  Level FlightAware Approximate
10:33AM 35.9664 -69.4009 168° South  Level FlightAware Approximate
10:34AM 35.8443 -69.3684 168° South  Level FlightAware Approximate
10:35AM 35.7223 -69.3360 168° South  Level FlightAware Approximate
10:36AM 35.6002 -69.3036 168° South  Level FlightAware Approximate
10:37AM 35.4781 -69.2714 168° South  Level FlightAware Approximate
10:38AM 35.2658 -69.2091 168° South 472 543 35,000  Level FlightAware Transoceanic
10:39AM 35.1371 -69.1751 168° South 472 543 35,000  Level FlightAware Transoceanic
10:40AM 35.0083 -69.1413 168° South 472 543 35,000  Level FlightAware Transoceanic
10:41AM 34.8796 -69.1075 168° South 472 543 35,000  Level FlightAware Transoceanic
10:42AM 34.7508 -69.0739 168° South 472 543 35,000  Level FlightAware Transoceanic
10:43AM 34.6221 -69.0403 168° South 472 543 35,000  Level FlightAware Transoceanic
10:44AM 34.4933 -69.0069 168° South 472 543 35,000  Level FlightAware Transoceanic
10:45AM 34.3645 -68.9735 168° South 472 543 35,000  Level FlightAware Transoceanic
10:46AM 34.2357 -68.9403 168° South 472 543 35,000  Level FlightAware Transoceanic
10:47AM 34.1069 -68.9071 168° South 472 543 35,000  Level FlightAware Transoceanic
10:48AM 33.9781 -68.8741 168° South 472 543 35,000  Level FlightAware Transoceanic
10:49AM 33.8492 -68.8412 168° South 472 543 35,000  Level FlightAware Transoceanic
10:50AM 33.7204 -68.8083 168° South 472 543 35,000  Level FlightAware Transoceanic
10:51AM 33.5916 -68.7756 168° South 472 543 35,000  Level FlightAware Transoceanic
10:52AM 33.4627 -68.7429 168° South 472 543 35,000  Level FlightAware Transoceanic
10:53AM 33.3339 -68.7104 168° South 472 543 35,000  Level FlightAware Transoceanic
10:54AM 33.2050 -68.6779 168° South 472 543 35,000  Level FlightAware Transoceanic
10:55AM 33.0761 -68.6456 168° South 472 543 35,000  Level FlightAware Transoceanic
10:56AM 32.9472 -68.6133 168° South 472 543 35,000  Level FlightAware Transoceanic
10:57AM 32.8183 -68.5812 168° South 472 543 35,000  Level FlightAware Transoceanic
10:58AM 32.6894 -68.5491 168° South 472 543 35,000  Level FlightAware Transoceanic
10:59AM 32.5605 -68.5171 168° South 472 543 35,000  Level FlightAware Transoceanic
11:00AM 32.4316 -68.4852 168° South 472 543 35,000  Level FlightAware Transoceanic
11:01AM 32.3027 -68.4534 168° South 472 543 35,000  Level FlightAware Transoceanic
11:02AM 32.1738 -68.4217 168° South 472 543 35,000  Level FlightAware Transoceanic
11:03AM 32.0448 -68.3901 168° South 472 543 35,000  Level FlightAware Transoceanic
11:04AM 31.9159 -68.3586 168° South 472 543 35,000  Level FlightAware Transoceanic
11:05AM 31.7869 -68.3271 168° South 472 543 35,000  Level FlightAware Transoceanic
11:06AM 31.6579 -68.2958 168° South 472 543 35,000  Level FlightAware Transoceanic
11:07AM 31.5290 -68.2645 168° South 472 543 35,000  Level FlightAware Transoceanic
11:08AM 31.4000 -68.2333 169° South 472 543 35,000  Level FlightAware Transoceanic
11:09AM 31.2731 -68.2032 169° South 472 543 35,000  Level FlightAware Transoceanic
11:10AM 31.1463 -68.1731 169° South 472 543 35,000  Level FlightAware Transoceanic
11:11AM 31.0194 -68.1431 169° South 472 543 35,000  Level FlightAware Transoceanic
11:11AM 31.4000 -68.2333 169° South 464 534 35,000  Level New York Oceanic (ODAPS)
11:12AM 30.8925 -68.1132 169° South 472 543 35,000  Level FlightAware Transoceanic
11:13AM 30.7657 -68.0834 169° South 472 543 35,000  Level FlightAware Transoceanic
11:14AM 30.6388 -68.0536 169° South 472 543 35,000  Level FlightAware Transoceanic
11:15AM 30.5119 -68.0239 169° South 472 543 35,000  Level FlightAware Transoceanic
11:16AM 30.3850 -67.9943 169° South 472 543 35,000  Level FlightAware Transoceanic
11:17AM 30.2581 -67.9648 169° South 464 534 35,000  Level FlightAware Transoceanic
11:18AM 30.1311 -67.9353 169° South 464 534 35,000  Level FlightAware Transoceanic
11:19AM 30.0042 -67.9060 169° South 464 534 35,000  Level FlightAware Transoceanic
11:20AM 29.8773 -67.8767 169° South 464 534 35,000  Level FlightAware Transoceanic
11:21AM 29.7504 -67.8475 169° South 464 534 35,000  Level FlightAware Transoceanic
11:22AM 29.6234 -67.8183 169° South 464 534 35,000  Level FlightAware Transoceanic
11:23AM 29.4965 -67.7892 169° South 464 534 35,000  Level FlightAware Transoceanic
11:24AM 29.3695 -67.7602 169° South 464 534 35,000  Level FlightAware Transoceanic
11:25AM 29.2426 -67.7313 169° South 464 534 35,000  Level FlightAware Transoceanic
11:26AM 29.1156 -67.7024 169° South 464 534 35,000  Level FlightAware Transoceanic
11:27AM 28.9886 -67.6737 169° South 464 534 35,000  Level FlightAware Transoceanic
11:28AM 28.8617 -67.6449 169° South 464 534 35,000  Level FlightAware Transoceanic
11:29AM 28.7347 -67.6163 169° South 464 534 35,000  Level FlightAware Transoceanic
11:30AM 28.6077 -67.5877 169° South 464 534 35,000  Level FlightAware Transoceanic
11:31AM 28.4807 -67.5592 169° South 464 534 35,000  Level FlightAware Transoceanic
11:32AM 28.3537 -67.5307 169° South 464 534 35,000  Level FlightAware Transoceanic
11:33AM 28.2267 -67.5024 169° South 464 534 35,000  Level FlightAware Transoceanic
11:34AM 28.0996 -67.4741 169° South 464 534 35,000  Level FlightAware Transoceanic
11:35AM 27.9726 -67.4458 169° South 464 534 35,000  Level FlightAware Transoceanic
11:36AM 27.8456 -67.4177 169° South 464 534 35,000  Level FlightAware Transoceanic
11:37AM 27.7186 -67.3896 169° South 464 534 35,000  Level FlightAware Transoceanic
11:38AM 27.5915 -67.3615 169° South 464 534 35,000  Level FlightAware Transoceanic
11:39AM 27.4645 -67.3335 169° South 464 534 35,000  Level FlightAware Transoceanic
11:40AM 27.3375 -67.3056 169° South 464 534 35,000  Level FlightAware Transoceanic
11:41AM 27.2104 -67.2778 169° South 464 534 35,000  Level FlightAware Transoceanic
11:42AM 27.0833 -67.2500 158° South 464 534 35,000  Level FlightAware Transoceanic
11:43AM 26.9591 -67.1949 158° South 464 534 35,000  Level FlightAware Transoceanic
11:44AM 26.8349 -67.1400 158° South 464 534 35,000  Level FlightAware Transoceanic
11:44AM 27.0833 -67.2500 158° South 467 537 35,000  Level New York Oceanic (ODAPS)
11:45AM 26.7107 -67.0851 159° South 464 534 35,000  Level FlightAware Transoceanic
11:46AM 26.5864 -67.0304 159° South 464 534 35,000  Level FlightAware Transoceanic
11:47AM 26.4621 -66.9758 159° South 464 534 35,000  Level FlightAware Transoceanic
11:48AM 26.3378 -66.9214 159° South 464 534 35,000  Level FlightAware Transoceanic
11:49AM 26.2135 -66.8670 159° South 464 534 35,000  Level FlightAware Transoceanic
11:50AM 26.2347 -66.8763 159° South 467 537 35,000  Level FlightAware Transoceanic
11:51AM 26.1134 -66.8233 159° South 467 537 35,000  Level FlightAware Transoceanic
11:52AM 25.9920 -66.7705 159° South 467 537 35,000  Level FlightAware Transoceanic
11:53AM 25.8707 -66.7178 159° South 467 537 35,000  Level FlightAware Transoceanic
11:54AM 25.7493 -66.6652 159° South 467 537 35,000  Level FlightAware Transoceanic
11:55AM 25.6279 -66.6127 159° South 467 537 35,000  Level FlightAware Transoceanic
11:56AM 25.5065 -66.5603 159° South 467 537 35,000  Level FlightAware Transoceanic
11:57AM 25.3851 -66.5080 159° South 467 537 35,000  Level FlightAware Transoceanic
11:58AM 25.2636 -66.4558 159° South 467 537 35,000  Level FlightAware Transoceanic
11:59AM 25.1422 -66.4037 159° South 467 537 35,000  Level FlightAware Transoceanic
12:00PM 25.0207 -66.3517 159° South 467 537 35,000  Level FlightAware Transoceanic
12:01PM 24.8992 -66.2998 159° South 467 537 35,000  Level FlightAware Transoceanic
12:02PM 24.7777 -66.2481 159° South 467 537 35,000  Level FlightAware Transoceanic
12:03PM 24.6561 -66.1964 159° South 467 537 35,000  Level FlightAware Transoceanic
12:04PM 24.5346 -66.1448 159° South 467 537 35,000  Level FlightAware Transoceanic
12:05PM 24.4130 -66.0933 159° South 467 537 35,000  Level FlightAware Transoceanic
12:06PM 24.2914 -66.0420 159° South 467 537 35,000  Level FlightAware Transoceanic
12:07PM 24.1698 -65.9907 159° South 467 537 35,000  Level FlightAware Transoceanic
12:08PM 24.0482 -65.9395 159° South 467 537 35,000  Level FlightAware Transoceanic
12:09PM 23.9266 -65.8884 159° South 467 537 35,000  Level FlightAware Transoceanic
12:10PM 23.8049 -65.8374 159° South 467 537 35,000  Level FlightAware Transoceanic
12:11PM 23.6832 -65.7866 159° South 467 537 35,000  Level FlightAware Transoceanic
12:12PM 23.5615 -65.7357 159° South 467 537 35,000  Level FlightAware Transoceanic
12:13PM 23.4398 -65.6851 159° South 467 537 35,000  Level FlightAware Transoceanic
12:14PM 23.3181 -65.6344 159° South 467 537 35,000  Level FlightAware Transoceanic
12:15PM 23.1964 -65.5839 159° South 467 537 35,000  Level FlightAware Transoceanic
12:16PM 23.0746 -65.5335 159° South 467 537 35,000  Level FlightAware Transoceanic
12:17PM 22.9528 -65.4832 159° South 467 537 35,000  Level FlightAware Transoceanic
12:18PM 22.8311 -65.4329 159° South 467 537 35,000  Level FlightAware Transoceanic
12:19PM 22.7092 -65.3828 159° South 467 537 35,000  Level FlightAware Transoceanic
12:20PM 22.5874 -65.3327 159° South 467 537 35,000  Level FlightAware Transoceanic
12:21PM 22.4656 -65.2827 159° South 467 537 35,000  Level FlightAware Transoceanic
12:22PM 22.3437 -65.2328 159° South 467 537 35,000  Level FlightAware Transoceanic
12:22PM 22.1833 -65.2000 166° South 480 552 35,000  Level San Juan Center
12:23PM 22.2219 -65.1831 159° South 467 537 35,000  Level FlightAware Transoceanic
12:23PM 22.0667 -65.1500 158° South 470 541 35,000  Level San Juan Center
12:24PM 22.1000 -65.1333 166° South 467 537 35,000  Level FlightAware Transoceanic
12:24PM 21.9333 -65.0833 155° Southeast 480 552 35,000  Level San Juan Center
12:25PM 21.9771 -65.0998 166° South 467 537 35,000  Level FlightAware Transoceanic
12:25PM 21.8167 -65.0500 165° South 490 564 35,000  Level San Juan Center
12:26PM 21.8542 -65.0663 166° South 467 537 35,000  Level FlightAware Transoceanic
12:26PM 21.6833 -65.0167 167° South 480 552 35,000  Level San Juan Center
12:27PM 21.7313 -65.0329 166° South 467 537 35,000  Level FlightAware Transoceanic
12:27PM 21.5500 -65.0000 173° South 470 541 35,000  Level San Juan Center
12:28PM 21.4333 -65.0167 188° South 460 529 35,000  Level San Juan Center
12:29PM 21.3000 -65.0167 180° South 450 518 35,000  Level San Juan Center
12:30PM 21.1833 -65.0333 188° South 450 518 35,000  Level San Juan Center
12:31PM 21.0500 -65.0333 180° South 450 518 35,000  Level San Juan Center
12:32PM 20.9167 -65.0333 180° South 460 529 35,000  Level San Juan Center
12:33PM 20.8000 -65.0500 188° South 450 518 35,000  Level San Juan Center
12:34PM 20.6667 -65.0500 180° South 460 529 35,000  Level San Juan Center
12:35PM 20.5500 -65.0667 188° South 450 518 35,000 -300 Level San Juan Center
12:36PM 20.4167 -65.0667 180° South 450 518 34,500 -720 Descending San Juan Center
12:37PM 20.3000 -65.0667 180° South 450 518 33,600 -1,620 Descending San Juan Center
12:38PM 20.1667 -65.0833 187° South 450 518 31,300 -2,100 Descending San Juan Center
12:39PM 20.0333 -65.0833 180° South 460 529 29,400 -2,220 Descending San Juan Center
12:40PM 19.9000 -65.1000 187° South 480 552 26,900 -2,400 Descending San Juan Center
12:41PM 19.7833 -65.1000 180° South 460 529 24,600 -2,160 Descending San Juan Center
12:42PM 19.6500 -65.1000 180° South 440 506 22,600 -2,220 Descending San Juan Center
12:43PM 19.5333 -65.1167 188° South 410 472 20,200 -2,280 Descending San Juan Center
12:44PM 19.4333 -65.1167 180° South 400 460 18,100 -2,040 Descending San Juan Center
12:45PM 19.3167 -65.1167 180° South 370 426 16,200 -2,100 Descending San Juan Center
12:46PM 19.2167 -65.1333 189° South 370 426 13,900 -2,160 Descending San Juan Center
12:47PM 19.1167 -65.1333 180° South 350 403 11,900 -1,800 Descending San Juan Center
12:48PM 19.0167 -65.1333 180° South 330 380 10,300 -1,320 Descending San Juan Center
12:49PM 18.9333 -65.1333 180° South 290 334 9,300 -900 Descending San Juan Center
12:50PM 18.8500 -65.1500 191° South 290 334 8,600 -900 Descending San Juan Center
12:51PM 18.7667 -65.1500 180° South 280 322 7,600 -1,020 Descending San Juan Center
12:52PM 18.6833 -65.1500 180° South 290 334 6,600 -960 Descending San Juan Center
12:53PM 18.6167 -65.1500 180° South 280 322 5,700 -960 Descending San Juan Center
12:54PM 18.5333 -65.1667 191° South 270 311 4,700 -1,080 Descending San Juan Center
12:55PM 18.4667 -65.1667 180° South 260 299 3,600 -900 Descending San Juan Center
12:56PM 18.4000 -65.1667 180° South 250 288 3,000 -600 Descending San Juan Center
12:57PM 18.3333 -65.1500 167° South 200 230 2,400 -600 Descending San Juan Center